Onslow Bay Outer, NC (41036)

Conditions for Wednesday

Daily
Weekly
Monthly
Marine Data Graph
Ad Blocker Enabled

Marine & Boating Location Search

Enter a coastal zip code for marine weather.

General Information

Location: 34.207 North -76.949 West
Buoy Type: 3-meter discus buoy
Buoy Hull: 3D32
Owned by: NDBC
Windspeed: Measured by obtained from anemometer
Sea Surface: Measured by Intake
Note: See the notice on loss of funding from the University of North Carolina, Wilmington for the old deployment of this station. For more information, please see the NWS Service Change Notice at http://www.nws.noaa.gov/om/notification/scn14-62buoy41036.htm

Weather and Wave Data

Time Temp Humidity Wind Dominant Wave Wind Wave Wave Swell Pressure
  Air
(°F)
Water
(°F)
  Dir Speed
(kts)
Speed
(mph)
Period
(sec)
Height
(ft)
Range
(ft)
Period
(sec)
Height
(ft)
Range
(ft)
Period
(sec)
Height
(ft)
Range
(ft)
Atmo.
(in)
Tend.
(in)
20:20 58 57 80 SW 11.7 13.4 - - - - - - 29.93 -
20:50 58 58 78 SW 13.6 15.7 7 3.28 exactly 3.3 5 1.64 0.82 - 2.46 7 3.28 2.46 - 4.10 29.94 +0.06
21:20 59 58 77 WSW 11.7 13.4 - - - - - - 29.94 -
21:50 59 58 78 West 11.7 13.4 7 2.95 exactly 3.0 5 1.64 0.82 - 2.46 7 1.64 0.82 - 2.46 29.96 +0.06
22:20 59 58 75 West 11.7 13.4 - - - - - - 29.97 -
22:50 60 58 57 WNW 11.7 13.4 8 2.95 exactly 3.0 6 1.64 0.82 - 2.46 8 1.64 0.82 - 2.46 29.97 +0.05
23:20 59 58 62 NW 9.7 11.2 - - - - - - 29.98 -
23:50 60 58 55 NW 11.7 13.4 8 2.95 exactly 3.0 5 1.64 0.82 - 2.46 8 1.64 0.82 - 2.46 29.98 +0.04
00:20 59 58 58 NNW 9.7 11.2 - - - - - - 29.98 -
00:50 60 59 45 NW 9.7 11.2 7 2.62 exactly 2.6 5 1.64 0.82 - 2.46 7 1.64 0.82 - 2.46 29.98 +0.03
01:20 59 59 40 NNW 13.6 15.7 - - - - - - 29.98 -
01:50 59 59 36 NNW 15.6 17.9 7 2.95 exactly 3.0 5 1.64 0.82 - 2.46 7 1.64 0.82 - 2.46 29.99 +0.01
02:20 58 59 35 North 17.5 20.1 - - - - - - 29.98 -
02:50 57 59 38 North 17.5 20.1 7 2.62 exactly 2.6 3 1.64 0.82 - 2.46 7 1.64 0.82 - 2.46 29.97 -
03:20 57 59 33 North 19.4 22.4 - - - - - - 29.98 -
03:50 56 59 32 North 17.5 20.1 4 3.28 exactly 3.3 4 3.28 2.46 - 4.10 8 1.64 0.82 - 2.46 29.98 -
04:20 55 59 26 North 19.4 22.4 - - - - - - 29.99 -
04:50 55 59 19 North 21.4 24.6 4 3.28 exactly 3.3 4 3.28 2.46 - 4.10 7 1.64 0.82 - 2.46 29.99 +0.01
05:20 54 59 19 North 19.4 22.4 - - - - - - 30.01 -
05:50 54 59 21 North 15.6 17.9 4 3.61 exactly 3.6 4 3.28 2.46 - 4.10 7 1.64 0.82 - 2.46 30.02 +0.05
06:20 54 59 21 North 13.6 15.7 - - - - - - 30.04 -
06:50 54 58 18 North 17.5 20.1 4 3.28 exactly 3.3 4 3.28 2.46 - 4.10 8 1.64 0.82 - 2.46 30.04 +0.06
07:20 53 58 17 North 15.6 17.9 - - - - - - 30.06 -
07:50 53 58 17 NNE 13.6 15.7 4 2.95 exactly 3.0 4 3.28 2.46 - 4.10 7 1.64 0.82 - 2.46 30.07 +0.08
08:20 52 58 17 NNE 15.6 17.9 - - - - - - 30.08 -
08:50 52 58 19 NNE 15.6 17.9 4 2.95 exactly 3.0 4 3.28 2.46 - 4.10 8 1.64 0.82 - 2.46 30.09 +0.07
09:20 51 58 17 NNE 15.6 17.9 - - - - - - 30.10 -
09:50 51 58 19 NNE 15.6 17.9 7 3.28 exactly 3.3 4 3.28 2.46 - 4.10 7 1.64 0.82 - 2.46 30.10 +0.06
10:20 51 58 18 NNE 13.6 15.7 - - - - - - 30.11 -
10:50 51 58 19 NNE 13.6 15.7 4 2.95 exactly 3.0 4 3.28 2.46 - 4.10 7 1.64 0.82 - 2.46 30.11 +0.04
11:20 51 58 18 North 13.6 15.7 - - - - - - 30.11 -
11:50 51 58 21 NNE 11.7 13.4 4 2.95 exactly 3.0 4 1.64 0.82 - 2.46 7 1.64 0.82 - 2.46 30.09 -
12:20 51 58 20 NNE 13.6 15.7 - - - - - - 30.09 -
12:50 51 58 18 NNE 13.6 15.7 7 2.62 exactly 2.6 4 1.64 0.82 - 2.46 7 1.64 0.82 - 2.46 30.08 -0.03
13:20 51 58 21 NNE 11.7 13.4 - - - - - - 30.06 -
13:50 51 58 21 NNE 9.7 11.2 7 2.62 exactly 2.6 4 1.64 0.82 - 2.46 7 1.64 0.82 - 2.46 30.06 -
14:20 51 58 19 NNE 9.7 11.2 - - - - - - 30.04 -
14:50 51 58 22 NE 7.8 8.9 7 2.62 exactly 2.6 4 1.64 0.82 - 2.46 7 1.64 0.82 - 2.46 30.03 -0.06
15:20 51 59 18 ENE 7.8 8.9 - - - - - - 30.01 -
15:50 52 59 19 ENE 7.8 8.9 8 2.62 exactly 2.6 4 1.64 0.82 - 2.46 8 1.64 0.82 - 2.46 29.98 -0.10
16:20 52 59 22 ENE 7.8 8.9 - - - - - - 29.96 -
16:50 52 59 23 East 7.8 8.9 7 2.30 exactly 2.3 4 1.64 0.82 - 2.46 7 1.64 0.82 - 2.46 29.94 -0.12
17:20 52 59 23 East 7.8 8.9 - - - - - - 29.93 -
17:50 53 59 24 East 9.7 11.2 8 2.30 exactly 2.3 4 1.64 0.82 - 2.46 8 1.64 0.82 - 2.46 29.93 -0.10
18:20 53 59
-
ESE 7.8 8.9 - - - - - - 29.92 -
18:50 53 59 25 ESE 7.8 8.9 7 2.62 exactly 2.6 4 1.64 0.82 - 2.46 7 1.64 0.82 - 2.46 29.92 -0.06
19:20 54 59 27 ESE 11.7 13.4 - - - - - - 29.91 -
19:50 55 59 33 SE 15.6 17.9 7 2.30 exactly 2.3 6 1.64 0.82 - 2.46 7 1.64 0.82 - 2.46 29.89 -0.05
20:20 54 59 46 ESE 13.6 15.7 - - - - - - 29.88 -
20:50 54 59 53 ESE 5.8 6.7 8 2.62 exactly 2.6 3 1.64 0.82 - 2.46 8 1.64 0.82 - 2.46 29.88 -0.04
21:20 55 59 54 North 3.9 4.5 - - - - - - 29.88 -
21:50 54 59 50 North 7.8 8.9 7 2.62 exactly 2.6 3 1.64 0.82 - 2.46 7 1.64 0.82 - 2.46 29.87 -0.05
22:20 54 59 46 NNE 7.8 8.9 - - - - - - 29.86 -
22:50 54 58 47 NNE 7.8 8.9 8 2.30 exactly 2.3 3 1.64 0.82 - 2.46 8 1.64 0.82 - 2.46 29.85 -0.04
23:20 54 58 51 NNE 7.8 8.9 - - - - - - 29.84 -
23:50 54 58 47 North 7.8 8.9 8 2.30 exactly 2.3 4 1.64 0.82 - 2.46 8 1.64 0.82 - 2.46 29.82 -0.06
00:20 54 58 48 North 7.8 8.9 - - - - - - 29.81 -
00:50 54 58 50 NNW 9.7 11.2 8 2.95 exactly 3.0 4 1.64 0.82 - 2.46 8 3.28 2.46 - 4.10 29.80 -0.08
01:20 54 58 49 NNW 11.7 13.4 - - - - - - 29.78 -
01:50 54 58 45 NNW 9.7 11.2 8 2.30 exactly 2.3 4 1.64 0.82 - 2.46 8 1.64 0.82 - 2.46 29.77 -0.08
02:20 54 58 41 NNW 9.7 11.2 - - - - - - 29.75 -
02:50 54 58 38 NNW 5.8 6.7 7 2.30 exactly 2.3 4 1.64 0.82 - 2.46 7 1.64 0.82 - 2.46 29.74 -0.08
03:20 54 58 36 NNW 3.9 4.5 - - - - - - 29.73 -
03:50 54 58 37 NNW 1.9 2.2 8 1.97 exactly 2.0 4 1.64 0.82 - 2.46 8 1.64 0.82 - 2.46 29.72 -0.08

Detailed Wave Spectra

Time Water Depth Wave Height Spectral Peak Period Average Wave Period Sampling Interval Wave Record
20:00 82 ft 3.08 ft 7.1 sec 4.9 sec 0.6 sec 2400 sec
21:00 82 ft 3.35 ft 7.1 sec 4.8 sec 0.6 sec 2400 sec
22:00 82 ft 3.08 ft 7.1 sec 4.6 sec 0.6 sec 2400 sec
23:00 82 ft 2.85 ft 7.7 sec 4.7 sec 0.6 sec 2400 sec
00:00 82 ft 2.85 ft 7.7 sec 5.1 sec 0.6 sec 2400 sec
01:00 82 ft 2.66 ft 7.1 sec 4.9 sec 0.6 sec 2400 sec
02:00 82 ft 2.89 ft 7.1 sec 5.0 sec 0.6 sec 2400 sec
03:00 82 ft 2.79 ft 7.1 sec 4.1 sec 0.6 sec 2400 sec
04:00 82 ft 3.28 ft 3.8 sec 4.0 sec 0.6 sec 2400 sec
05:00 82 ft 3.41 ft 4.2 sec 4.0 sec 0.6 sec 2400 sec
06:00 82 ft 3.61 ft 4.3 sec 4.1 sec 0.6 sec 2400 sec
07:00 82 ft 3.15 ft 4.2 sec 4.0 sec 0.6 sec 2400 sec
08:00 82 ft 3.08 ft 3.7 sec 3.9 sec 0.6 sec 2400 sec
09:00 82 ft 3.08 ft 4.0 sec 3.9 sec 0.6 sec 2400 sec
10:00 82 ft 3.22 ft 7.1 sec 4.1 sec 0.6 sec 2400 sec
12:00 82 ft 2.85 ft 3.8 sec 4.0 sec 0.6 sec 2400 sec
13:00 82 ft 2.79 ft 6.7 sec 4.3 sec 0.6 sec 2400 sec
14:00 82 ft 2.72 ft 7.1 sec 4.4 sec 0.6 sec 2400 sec
15:00 82 ft 2.56 ft 6.7 sec 4.4 sec 0.6 sec 2400 sec
16:00 82 ft 2.62 ft 7.7 sec 4.7 sec 0.6 sec 2400 sec
17:00 82 ft 2.30 ft 6.7 sec 4.8 sec 0.6 sec 2400 sec
18:00 82 ft 2.46 ft 7.7 sec 5.4 sec 0.6 sec 2400 sec
19:00 82 ft 2.59 ft 7.1 sec 5.5 sec 0.6 sec 2400 sec
20:00 82 ft 2.43 ft 7.1 sec 5.1 sec 0.6 sec 2400 sec
21:00 82 ft 2.53 ft 7.7 sec 4.9 sec 0.6 sec 2400 sec
22:00 82 ft 2.56 ft 6.7 sec 5.0 sec 0.6 sec 2400 sec
23:00 82 ft 2.26 ft 7.7 sec 4.8 sec 0.6 sec 2400 sec
00:00 82 ft 2.43 ft 7.7 sec 4.8 sec 0.6 sec 2400 sec
01:00 82 ft 2.85 ft 7.7 sec 5.3 sec 0.6 sec 2400 sec
02:00 82 ft 2.43 ft 7.7 sec 5.0 sec 0.6 sec 2400 sec
03:00 82 ft 2.33 ft 7.1 sec 4.9 sec 0.6 sec 2400 sec